SBOSBO BRU / EBBR
Speedbird OnlineSpeedbird Online BRU / EBBR

Brussels Airport
14:02 7.5°C

Location Brussels, Belgium
Latitude: 50.901401519800004
Longitude: 4.48443984985
Web Airport Website | Wikipedia
Altitude 56 Meter / 184 Feet
Distance 311 KM / 193 Miles
from London.
Time Zone UTC +1 hours (Europe/Brussels)
Codes IATA: BRU
ICAO: EBBR
Currency £1 equals EUR 1.14
Runways
RunwayLength (m)Surface
012987Asphalt
07L3638Asphalt
07R3211Asphalt
192987Asphalt
25L3211Asphalt
25R3638Asphalt
Radio
TypeDescriptionFrequency
APPAPP118.255
ATISATIS DEP121.755
ATISATIS ARR132.475
CLDCLNC DEL121.95
DEPDEP126.63
GNDGND North118.055
GNDGND South121.88
OPSMELSBROEK OPS140.575
TWRTWR (RWY 07R/25L and 01)118.605
TWRTWR (RWY 07L/25R or 19)120.78
UNICABELAG UNICOM130.55
Live ATC
METAR EBBR 311250Z 25015KT 9000 -RADZ BKN012 BKN023 07/05 Q1023 NOSIG
TAF TAF EBBR 311100Z 3112/0118 24011KT 9999 BKN015 PROB30 TEMPO 3113/3115 BKN009
Weather As Of 31 Jan 2023 14:02
Description Broken clouds
Wind 28 km/h from West (250°)
Cloud Cover 75%
Precipitation Rain: none, Snow: none
Sunrise 08:20
Sunset 17:30
Lounges Diamond Lounge Pier B, Non-Schengen
THE LOFT by Brussels Airlines , Pier A
Diamond Lounge Pier A, Pier A
The Suite, Pier B
Rotations During the last 90 days there were
344 flights from LHR
342 flights to LHR



Support Speedbird Online

© 2017-2023 Speedbird Online